AirNav   Textron
 
 720 users online  

06M Eupora Airport
Eupora, Mississippi, USA


FAA INFORMATION EFFECTIVE 09 NOVEMBER 2017

Location

FAA Identifier: 06M
Lat/Long: 33-32-05.4000N / 089-18-47.2000W
33-32.090000N / 089-18.786667W
33.5348333 / -89.3131111
(estimated)
Elevation: 450 ft. / 137 m (estimated)
Variation: 02E (1985)
From city: 2 miles W of EUPORA, MS
Time zone: UTC -6 (UTC -5 during Daylight Saving Time)
Zip code: 39744

Airport Operations

Airport use: Open to the public
Activation date: 04/1970
Control tower: no
ARTCC: MEMPHIS CENTER
FSS: GREENWOOD FLIGHT SERVICE STATION
NOTAMs facility: GWO (NOTAM-D service available)
Attendance: UNATNDD
Wind indicator: lighted
Segmented circle: yes
Lights: ACTIVATE MIRL RY 14/32 AND PAPI RY 14/32 - CTAF.
Beacon: white-green (lighted land airport)
Operates sunset to sunrise.

Airport Communications

CTAF: 122.9

Airport Services

Parking: tiedowns
Airframe service: NONE
Powerplant service: NONE
Bottled oxygen: NONE
Bulk oxygen: NONE

Runway Information

Runway 14/32

Dimensions: 3000 x 60 ft. / 914 x 18 m
Surface: asphalt, in good condition
Weight bearing capacity: 
Single wheel: 20.0
Runway edge lights: medium intensity
RUNWAY 14  RUNWAY 32
Latitude: 33-32.303313N33-31.877880N
Longitude: 089-18.937218W089-18.635573W
Elevation: 450.0 ft.421.0 ft.
Gradient: 0.8%0.8%
Traffic pattern: leftleft
Runway heading: 147 magnetic, 149 true327 magnetic, 329 true
Markings: basic, in good conditionbasic, in good condition
Visual slope indicator: 2-light PAPI on left (3.00 degrees glide path)2-light PAPI on left (3.00 degrees glide path)
Obstructions: 40 ft. tree, 1000 ft. from runway, 20:1 slope to clearnone

Airport Ownership and Management from official FAA records

Ownership: Publicly-owned
Owner: TOWN OF EUPORA
390 CLARK AVE
EUPORA, MS 39744
Phone 662-258-2291
Manager: DAN BURCHFIELD, MAYOR
390 CLARK AVE, 102 E CLARK AVE
EUPORA, MS 39744
Phone 662-258-2291

Airport Operational Statistics

Aircraft operations: avg 29/week *
67% transient general aviation
33% local general aviation
* for 12-month period ending 12 January 2017

Instrument Procedures

There are no published instrument procedures at 06M.

Some nearby airports with instrument procedures:

5A6 - Winona-Montgomery County Airport (21 nm W)
KSTF - George M Bryan Airport (24 nm E)
KLMS - Louisville Winston County Airport (26 nm SE)
KOSX - Kosciusko-Attala County Airport (29 nm SW)
KGNF - Grenada Municipal Airport (30 nm NW)
 
Loc | Ops | Rwys | IFR | FBO | Links
Com | Nav | Svcs | Stats | Notes


 
Area around 06M (Eupora Airport)
 
Road maps at: MapQuest Bing Google
 
Aerial photo
WARNING: Photo may not be current or correct
Aerial photo of 06M (Eupora Airport)
Do you have a better or more recent aerial photo of Eupora Airport that you would like to share? If so, please send us your photo.

 
Sectional chart

 
Airport distance calculator
Flying to Eupora Airport? Find the distance to fly.

From to 06M

Sunrise and sunset
Times for 21-Nov-2017
 Local
(UTC-6)
 Zulu
(UTC)
Morning civil twilight06:0912:09
Sunrise06:3512:35
Sunset16:5122:51
Evening civil twilight17:1823:18

Current date and time
Zulu (UTC)  22-Nov-2017 04:17:23
Local (UTC-6)  21-Nov-2017 22:17:23
 
METAR
K5A6 
21nm W 
220355Z AUTO 00000KT 10SM SCT037 05/05 A3011 RMK AO2 T00470047
KSTF 
24nm E 
220355Z AUTO 00000KT 10SM CLR 06/04 A3010 RMK AO2
KGTR 
38nm E 
220356Z AUTO 00000KT 10SM CLR 07/03 A3011 RMK AO2 SLP197 T00720033
KGWO 
39nm W 
220353Z AUTO 00000KT 10SM CLR 07/04 A3011 RMK AO2 SLP195 T00670044 $
TAF
KGTR 
38nm E 
211741Z 2118/2218 18005KT P6SM FEW150 SCT250 FM212300 02003KT P6SM FEW150 SCT250
KGWO 
39nm W 
211741Z 2118/2218 18006KT P6SM FEW150 SCT250 FM212300 35003KT P6SM FEW150 SCT250
KCBM 
44nm E 
212350Z 2123/2223 33006KT 9999 SCT080 QNH2998INS TEMPO 2123/2200 8000 -SHRA BKN030 BECMG 2200/2201 35009KT 9999 SKC QNH3014INS BECMG 2214/2215 01010G15KT 9999 SKC QNH3015INS TX09/2123Z TN02/2212Z LAST NO AMDS AFT 2123 NEXT 2209
NOTAMs
Click for the latest NOTAMs
NOTAMs are issued by the DoD/FAA and will open in a separate window not controlled by AirNav.

 

 
 

Would you like to see your business listed on this page?

 If your business provides an interesting product or service to pilots, flight crews, aircraft, or users of the Eupora Airport, you should consider listing it here.  To start the listing process, click on the button below
 
Add a business
 

Other Pages about Eupora Airport

Update a link
 
Copyright © AirNav, LLC. All rights reserved. Privacy Policy  Contact